Time;durP1;ratioP1;P1;durP2;ratioP2;P2;SDS_P1;SDS_P2;PMS_P1;PMS_P2;Temp;Humidity;BMP_temperature;BMP_pressure;BME280_temperature;BME280_humidity;BME280_pressure;Samples;Min_cycle;Max_cycle;Signal;HPM_P1;HPM_P2
2022/03/28 00:00:19;;;;;;;23.92;13.80;;;;;;;;;;4933518;29;20051;-64
2022/03/28 00:02:46;;;;;;;25.42;13.68;;;;;;;;;;4933268;29;20055;-63
2022/03/28 00:05:14;;;;;;;21.83;12.57;;;;;;;;;;4932880;29;20054;-63
2022/03/28 00:07:42;;;;;;;22.55;12.95;;;;;;;;;;4933055;29;20062;-63
2022/03/28 00:10:09;;;;;;;22.60;13.32;;;;;;;;;;4940795;29;20047;-63
2022/03/28 00:12:38;;;;;;;21.90;13.68;;;;;;;;;;4952136;29;20049;-63
2022/03/28 00:15:07;;;;;;;22.58;13.27;;;;;;;;;;4952598;29;20480;-63
2022/03/28 00:17:36;;;;;;;23.58;13.63;;;;;;;;;;4952395;29;20390;-63
2022/03/28 00:20:04;;;;;;;22.80;13.13;;;;;;;;;;4952456;29;20055;-63
2022/03/28 00:22:31;;;;;;;24.48;13.05;;;;;;;;;;4952295;29;20066;-63
2022/03/28 00:24:58;;;;;;;20.83;12.65;;;;;;;;;;4952163;28;20059;-63
2022/03/28 00:27:25;;;;;;;22.30;13.43;;;;;;;;;;4952397;29;20138;-63
2022/03/28 00:29:52;;;;;;;22.77;13.48;;;;;;;;;;4952734;29;20085;-62
2022/03/28 00:32:19;;;;;;;23.33;13.52;;;;;;;;;;4952294;29;20485;-63
2022/03/28 00:34:47;;;;;;;24.83;13.23;;;;;;;;;;4951634;29;20086;-63
2022/03/28 00:37:14;;;;;;;21.05;12.70;;;;;;;;;;4951788;29;20051;-63
2022/03/28 00:39:41;;;;;;;24.13;13.82;;;;;;;;;;4951910;29;20421;-63
2022/03/28 00:42:09;;;;;;;21.98;12.75;;;;;;;;;;4952195;29;20492;-63
2022/03/28 00:44:36;;;;;;;22.27;13.13;;;;;;;;;;4947361;29;20411;-64
2022/03/28 00:47:04;;;;;;;22.52;13.88;;;;;;;;;;4932679;29;20521;-63
2022/03/28 00:49:31;;;;;;;20.65;12.70;;;;;;;;;;4933194;29;20055;-63
2022/03/28 00:51:59;;;;;;;23.73;12.93;;;;;;;;;;4933371;29;20111;-63
2022/03/28 00:54:27;;;;;;;23.55;13.05;;;;;;;;;;4932734;29;20130;-63
2022/03/28 00:56:55;;;;;;;24.58;11.95;;;;;;;;;;4932764;29;20489;-63
2022/03/28 00:59:22;;;;;;;20.60;12.15;;;;;;;;;;4932778;29;20064;-63
2022/03/28 01:01:49;;;;;;;19.60;11.98;;;;;;;;;;4932715;29;20060;-63
2022/03/28 01:04:16;;;;;;;20.40;11.93;;;;;;;;;;4932706;29;20056;-63
2022/03/28 01:06:44;;;;;;;23.30;13.20;;;;;;;;;;4932474;29;20408;-63
2022/03/28 01:09:12;;;;;;;18.52;11.70;;;;;;;;;;4932591;29;20051;-63
2022/03/28 01:11:43;;;;;;;19.38;11.90;;;;;;;;;;4932484;29;20138;-63
2022/03/28 01:14:11;;;;;;;20.83;12.73;;;;;;;;;;4933449;29;20520;-63
2022/03/28 01:19:18;;;;;;;;;;;;;;;;;;4936448;29;20059;-63
2022/03/28 01:21:47;;;;;;;22.50;11.52;;;;;;;;;;4936104;29;20367;-63
2022/03/28 01:24:14;;;;;;;18.52;11.07;;;;;;;;;;4934960;29;20142;-63
2022/03/28 01:26:41;;;;;;;21.02;12.70;;;;;;;;;;4935291;29;20055;-63
2022/03/28 01:29:08;;;;;;;19.50;11.65;;;;;;;;;;4935737;29;20055;-63
2022/03/28 01:31:38;;;;;;;20.95;11.27;;;;;;;;;;4935749;29;20087;-63
2022/03/28 01:34:05;;;;;;;22.30;12.03;;;;;;;;;;4935857;29;20056;-63
2022/03/28 01:36:33;;;;;;;20.80;11.70;;;;;;;;;;4935507;29;20278;-63
2022/03/28 01:39:01;;;;;;;19.17;11.10;;;;;;;;;;4936093;29;20497;-63
2022/03/28 01:41:28;;;;;;;23.40;12.63;;;;;;;;;;4935777;29;20087;-63
2022/03/28 01:43:55;;;;;;;17.67;11.05;;;;;;;;;;4935846;29;20062;-63
2022/03/28 01:46:22;;;;;;;21.88;11.32;;;;;;;;;;4955033;29;20091;-63
2022/03/28 01:48:49;;;;;;;19.17;11.75;;;;;;;;;;4954801;29;20047;-63
2022/03/28 01:51:16;;;;;;;20.05;10.90;;;;;;;;;;4954827;29;20087;-64
2022/03/28 01:53:43;;;;;;;21.80;10.98;;;;;;;;;;4954485;29;20055;-63
2022/03/28 01:56:11;;;;;;;20.27;11.20;;;;;;;;;;4954112;29;20528;-61
2022/03/28 01:58:38;;;;;;;18.42;10.48;;;;;;;;;;4954234;29;20051;-63
2022/03/28 02:01:05;;;;;;;19.77;10.57;;;;;;;;;;4954330;29;20055;-64
2022/03/28 02:03:32;;;;;;;18.70;10.80;;;;;;;;;;4954627;29;20291;-64
2022/03/28 02:05:59;;;;;;;20.08;10.80;;;;;;;;;;4953867;29;20424;-64
2022/03/28 02:08:26;;;;;;;17.55;10.70;;;;;;;;;;4953896;29;20568;-62
2022/03/28 02:10:55;;;;;;;19.77;11.32;;;;;;;;;;4954293;29;20145;-62
2022/03/28 02:13:23;;;;;;;16.95;9.85;;;;;;;;;;4954744;29;20058;-62
2022/03/28 02:15:50;;;;;;;18.65;10.60;;;;;;;;;;4954649;29;20055;-62
2022/03/28 02:18:17;;;;;;;20.00;10.27;;;;;;;;;;4953754;29;20061;-62
2022/03/28 02:20:44;;;;;;;18.77;9.95;;;;;;;;;;4954186;29;20051;-62
2022/03/28 02:23:11;;;;;;;18.08;9.88;;;;;;;;;;4953881;29;20055;-62
2022/03/28 02:25:39;;;;;;;16.73;9.68;;;;;;;;;;4953890;29;20054;-62
2022/03/28 02:28:06;;;;;;;16.95;8.68;;;;;;;;;;4953245;28;20109;-62
2022/03/28 02:30:35;;;;;;;16.45;9.32;;;;;;;;;;4953833;29;20055;-62
2022/03/28 02:33:02;;;;;;;16.70;9.82;;;;;;;;;;4953939;29;20130;-62
2022/03/28 02:35:29;;;;;;;17.77;9.93;;;;;;;;;;4953790;29;20151;-62
2022/03/28 02:37:57;;;;;;;16.60;9.45;;;;;;;;;;4953649;29;20126;-63
2022/03/28 02:40:25;;;;;;;13.75;9.18;;;;;;;;;;4953956;29;20076;-63
2022/03/28 02:42:52;;;;;;;14.02;9.00;;;;;;;;;;4954052;29;20497;-63
2022/03/28 02:45:19;;;;;;;18.63;9.80;;;;;;;;;;4953930;29;20429;-63
2022/03/28 02:47:47;;;;;;;16.10;9.50;;;;;;;;;;4953400;29;20516;-62
2022/03/28 02:50:14;;;;;;;14.13;8.55;;;;;;;;;;4953384;29;20142;-62
2022/03/28 02:52:41;;;;;;;15.00;8.73;;;;;;;;;;4953498;29;20506;-62
2022/03/28 02:55:09;;;;;;;16.13;9.15;;;;;;;;;;4953294;29;20409;-62
2022/03/28 02:57:37;;;;;;;18.85;10.15;;;;;;;;;;4953262;29;20074;-63
2022/03/28 03:00:10;;;;;;;14.38;9.38;;;;;;;;;;4953283;29;20130;-63
2022/03/28 03:02:38;;;;;;;14.65;9.02;;;;;;;;;;4953813;29;20417;-63
2022/03/28 03:05:08;;;;;;;15.95;9.77;;;;;;;;;;4953085;29;20111;-63
2022/03/28 03:07:35;;;;;;;14.48;9.27;;;;;;;;;;4953410;29;20047;-63
2022/03/28 03:10:03;;;;;;;15.35;9.23;;;;;;;;;;4953262;29;20047;-62
2022/03/28 03:12:30;;;;;;;17.10;9.07;;;;;;;;;;4953341;29;20137;-63
2022/03/28 03:14:57;;;;;;;13.85;8.95;;;;;;;;;;4953326;29;20597;-62
2022/03/28 03:17:24;;;;;;;13.93;8.93;;;;;;;;;;4947330;29;20572;-63
2022/03/28 03:19:51;;;;;;;15.57;8.88;;;;;;;;;;4953079;28;20058;-63
2022/03/28 03:22:19;;;;;;;18.08;9.52;;;;;;;;;;4953233;28;20155;-63
2022/03/28 03:24:47;;;;;;;16.60;8.95;;;;;;;;;;4953233;28;20051;-63
2022/03/28 03:27:14;;;;;;;14.77;9.25;;;;;;;;;;4953121;28;20051;-63
2022/03/28 03:29:41;;;;;;;15.45;9.10;;;;;;;;;;4952838;28;20087;-63
2022/03/28 03:32:10;;;;;;;14.77;9.50;;;;;;;;;;4953216;28;20147;-63
2022/03/28 03:34:37;;;;;;;14.52;9.70;;;;;;;;;;4952622;28;20059;-63
2022/03/28 03:37:05;;;;;;;17.63;9.90;;;;;;;;;;4952678;28;20062;-62
2022/03/28 03:39:35;;;;;;;17.17;9.88;;;;;;;;;;4952513;28;20552;-62
2022/03/28 03:42:02;;;;;;;14.82;9.07;;;;;;;;;;4952414;28;20066;-63
2022/03/28 03:44:29;;;;;;;15.75;9.80;;;;;;;;;;4948968;28;20122;-63
2022/03/28 03:46:56;;;;;;;16.40;9.70;;;;;;;;;;4933664;29;20108;-63
2022/03/28 03:49:23;;;;;;;16.13;9.98;;;;;;;;;;4933023;29;20417;-62
2022/03/28 03:51:50;;;;;;;18.05;10.10;;;;;;;;;;4933616;29;20195;-63
2022/03/28 03:54:17;;;;;;;14.32;9.48;;;;;;;;;;4933741;29;20052;-63
2022/03/28 03:56:46;;;;;;;17.48;10.75;;;;;;;;;;4933435;29;20055;-63
2022/03/28 03:59:13;;;;;;;27.58;15.05;;;;;;;;;;4933737;29;20051;-63
2022/03/28 04:01:40;;;;;;;21.88;12.95;;;;;;;;;;4933971;29;20056;-63
2022/03/28 04:04:07;;;;;;;23.63;13.60;;;;;;;;;;4933546;29;20056;-63
2022/03/28 04:06:34;;;;;;;22.00;13.50;;;;;;;;;;4933722;29;20060;-63
2022/03/28 04:09:01;;;;;;;25.75;15.45;;;;;;;;;;4933369;29;20143;-63
2022/03/28 04:11:28;;;;;;;25.48;14.82;;;;;;;;;;4933220;29;20691;-63
2022/03/28 04:13:57;;;;;;;23.80;15.60;;;;;;;;;;4933748;29;20078;-63
2022/03/28 04:16:24;;;;;;;25.15;13.77;;;;;;;;;;4933453;29;20048;-63
2022/03/28 04:18:51;;;;;;;22.85;14.63;;;;;;;;;;4933034;29;20062;-63
2022/03/28 04:21:18;;;;;;;25.85;15.50;;;;;;;;;;4933585;29;20138;-63
2022/03/28 04:23:45;;;;;;;24.40;15.00;;;;;;;;;;4933385;29;20417;-63
2022/03/28 04:26:12;;;;;;;26.08;14.75;;;;;;;;;;4933128;29;20486;-63
2022/03/28 04:28:39;;;;;;;29.60;15.05;;;;;;;;;;4933423;29;20051;-63
2022/03/28 04:31:09;;;;;;;28.67;16.35;;;;;;;;;;4933243;29;20075;-63
2022/03/28 04:33:37;;;;;;;25.98;14.35;;;;;;;;;;4933337;29;20051;-63
2022/03/28 04:36:04;;;;;;;22.05;13.88;;;;;;;;;;4932774;29;20079;-63
2022/03/28 04:38:31;;;;;;;21.67;13.30;;;;;;;;;;4932742;29;20134;-63
2022/03/28 04:40:58;;;;;;;23.25;14.23;;;;;;;;;;4932925;29;20103;-63
2022/03/28 04:43:26;;;;;;;26.65;15.13;;;;;;;;;;4933284;29;20260;-63
2022/03/28 04:45:53;;;;;;;29.00;16.27;;;;;;;;;;4932914;29;20066;-63
2022/03/28 04:48:21;;;;;;;29.55;16.67;;;;;;;;;;4932650;29;20057;-63
2022/03/28 04:50:48;;;;;;;21.92;13.45;;;;;;;;;;4934781;29;20056;-63
2022/03/28 04:53:16;;;;;;;23.35;14.02;;;;;;;;;;4936687;29;20059;-64
2022/03/28 04:55:44;;;;;;;21.08;13.27;;;;;;;;;;4937007;29;20056;-63
2022/03/28 04:58:11;;;;;;;22.98;13.75;;;;;;;;;;4936532;29;20059;-63
2022/03/28 05:00:38;;;;;;;21.73;13.48;;;;;;;;;;4936583;29;20060;-63
2022/03/28 05:03:05;;;;;;;22.33;14.77;;;;;;;;;;4936660;29;20058;-63
2022/03/28 05:05:34;;;;;;;27.20;15.40;;;;;;;;;;4936448;29;20382;-62
2022/03/28 05:08:01;;;;;;;19.48;13.23;;;;;;;;;;4951519;23;20233;-68
2022/03/28 05:10:28;;;;;;;24.55;14.05;;;;;;;;;;4955290;29;20051;-68
2022/03/28 05:12:55;;;;;;;23.15;13.45;;;;;;;;;;4955096;29;20528;-68
2022/03/28 05:15:23;;;;;;;21.33;12.65;;;;;;;;;;4954945;29;20474;-68
2022/03/28 05:17:50;;;;;;;26.10;15.20;;;;;;;;;;4955301;29;20090;-69
2022/03/28 05:20:17;;;;;;;22.67;14.15;;;;;;;;;;4955151;29;20489;-68
2022/03/28 05:22:46;;;;;;;23.60;13.80;;;;;;;;;;4955163;29;20094;-68
2022/03/28 05:25:13;;;;;;;21.40;13.65;;;;;;;;;;4954819;29;20061;-69
2022/03/28 05:27:43;;;;;;;23.85;14.75;;;;;;;;;;4954789;28;20094;-67
2022/03/28 05:30:11;;;;;;;25.38;14.77;;;;;;;;;;4955039;29;20125;-68
2022/03/28 05:32:39;;;;;;;25.83;14.85;;;;;;;;;;4954593;29;20059;-67
2022/03/28 05:35:07;;;;;;;25.92;14.95;;;;;;;;;;4954872;29;20134;-67
2022/03/28 05:37:35;;;;;;;29.90;16.48;;;;;;;;;;4954693;29;20575;-68
2022/03/28 05:40:04;;;;;;;24.20;14.93;;;;;;;;;;4954902;29;20422;-69
2022/03/28 05:42:31;;;;;;;26.80;16.00;;;;;;;;;;4954840;29;20058;-68
2022/03/28 05:44:58;;;;;;;23.60;15.45;;;;;;;;;;4954940;29;20051;-69
2022/03/28 05:47:26;;;;;;;29.15;15.70;;;;;;;;;;4954369;29;20055;-67
2022/03/28 05:49:56;;;;;;;23.67;15.43;;;;;;;;;;4954494;29;20138;-71
2022/03/28 05:52:23;;;;;;;24.45;12.95;;;;;;;;;;4954281;29;20082;-67
2022/03/28 05:54:50;;;;;;;20.35;12.73;;;;;;;;;;4954333;29;20047;-67
2022/03/28 05:57:18;;;;;;;19.85;12.63;;;;;;;;;;4954134;29;20112;-67
2022/03/28 05:59:45;;;;;;;20.67;11.50;;;;;;;;;;4953869;29;20081;-67
2022/03/28 06:02:13;;;;;;;18.50;10.95;;;;;;;;;;4953177;28;20566;-68
2022/03/28 06:04:40;;;;;;;20.27;11.30;;;;;;;;;;4953962;29;20094;-68
2022/03/28 06:07:07;;;;;;;24.52;14.45;;;;;;;;;;4954593;28;20052;-68
2022/03/28 06:09:34;;;;;;;28.25;16.52;;;;;;;;;;4953743;29;20134;-68
2022/03/28 06:12:01;;;;;;;24.85;14.90;;;;;;;;;;4954173;29;20055;-67
2022/03/28 06:14:29;;;;;;;27.35;17.55;;;;;;;;;;4954418;29;20061;-69
2022/03/28 06:16:57;;;;;;;43.53;28.27;;;;;;;;;;4953762;28;20047;-69
2022/03/28 06:19:24;;;;;;;26.20;16.23;;;;;;;;;;4953898;29;20279;-69
2022/03/28 06:21:51;;;;;;;24.95;13.48;;;;;;;;;;4953912;29;20062;-67
2022/03/28 06:24:18;;;;;;;20.60;12.23;;;;;;;;;;4953768;29;20047;-69
2022/03/28 06:26:45;;;;;;;21.25;12.40;;;;;;;;;;4953910;29;20051;-69
2022/03/28 06:29:12;;;;;;;18.67;11.10;;;;;;;;;;4953629;29;20142;-67
2022/03/28 06:31:41;;;;;;;18.42;10.80;;;;;;;;;;4953754;29;20138;-67
2022/03/28 06:34:08;;;;;;;17.38;10.60;;;;;;;;;;4953397;29;20134;-67
2022/03/28 06:36:35;;;;;;;23.42;11.77;;;;;;;;;;4953344;28;20098;-66
2022/03/28 06:39:02;;;;;;;20.55;11.73;;;;;;;;;;4953689;29;20066;-67
2022/03/28 06:41:29;;;;;;;20.58;12.60;;;;;;;;;;4953727;29;20063;-67
2022/03/28 06:43:57;;;;;;;21.65;12.48;;;;;;;;;;4953540;29;20450;-67
2022/03/28 06:46:23;;;;;;;21.70;13.48;;;;;;;;;;4953662;29;20521;-67
2022/03/28 06:48:54;;;;;;;25.08;14.80;;;;;;;;;;4953368;29;20092;-67
2022/03/28 06:51:21;;;;;;;20.45;14.18;;;;;;;;;;4953327;29;20055;-67
2022/03/28 06:53:49;;;;;;;21.42;14.65;;;;;;;;;;4953372;29;20409;-67
2022/03/28 06:56:17;;;;;;;22.85;13.02;;;;;;;;;;4952261;28;20106;-68
2022/03/28 06:58:47;;;;;;;19.48;12.73;;;;;;;;;;4952474;28;20102;-68
2022/03/28 07:01:14;;;;;;;21.60;12.20;;;;;;;;;;4953003;29;20051;-68
2022/03/28 07:03:42;;;;;;;18.77;10.73;;;;;;;;;;4952961;29;20055;-67
2022/03/28 07:06:11;;;;;;;17.05;11.15;;;;;;;;;;4953096;29;20093;-68
2022/03/28 07:08:38;;;;;;;19.00;10.55;;;;;;;;;;4953069;29;20393;-68
2022/03/28 07:11:05;;;;;;;19.52;11.88;;;;;;;;;;4953306;29;20055;-68
2022/03/28 07:13:32;;;;;;;19.73;12.00;;;;;;;;;;4952721;28;20511;-68
2022/03/28 07:16:00;;;;;;;22.65;11.90;;;;;;;;;;4952768;29;20518;-68
2022/03/28 07:18:27;;;;;;;19.52;11.63;;;;;;;;;;4953074;29;20047;-68
2022/03/28 07:20:54;;;;;;;18.15;10.40;;;;;;;;;;4952837;28;20051;-68
2022/03/28 07:23:23;;;;;;;21.17;11.35;;;;;;;;;;4952824;29;20057;-68
2022/03/28 07:25:50;;;;;;;18.15;10.90;;;;;;;;;;4953290;29;20063;-69
2022/03/28 07:28:18;;;;;;;16.25;11.32;;;;;;;;;;4953020;29;20264;-67
2022/03/28 07:30:46;;;;;;;24.65;12.35;;;;;;;;;;4953508;29;20043;-68
2022/03/28 07:33:13;;;;;;;20.77;13.00;;;;;;;;;;4952861;29;20055;-69
2022/03/28 07:35:40;;;;;;;19.05;11.05;;;;;;;;;;4952635;29;20051;-69
2022/03/28 07:38:10;;;;;;;19.08;10.95;;;;;;;;;;4952731;29;20130;-69
2022/03/28 07:40:40;;;;;;;16.73;10.70;;;;;;;;;;4953608;29;20468;-69
2022/03/28 07:43:09;;;;;;;19.55;12.23;;;;;;;;;;4952724;29;20062;-71
2022/03/28 07:45:37;;;;;;;17.88;10.57;;;;;;;;;;4952760;29;20090;-67
2022/03/28 07:48:06;;;;;;;20.95;10.70;;;;;;;;;;4952328;29;20536;-69
2022/03/28 07:50:34;;;;;;;19.70;10.32;;;;;;;;;;4952231;29;20532;-69
2022/03/28 07:53:02;;;;;;;15.98;10.13;;;;;;;;;;4953030;29;20126;-69
2022/03/28 07:55:29;;;;;;;20.20;11.20;;;;;;;;;;4952579;29;20051;-69
2022/03/28 07:57:59;;;;;;;21.63;12.05;;;;;;;;;;4952820;29;20571;-69
2022/03/28 08:00:28;;;;;;;21.55;11.45;;;;;;;;;;4951144;29;20047;-69
2022/03/28 08:02:55;;;;;;;16.95;10.60;;;;;;;;;;4950774;29;20051;-69
2022/03/28 08:05:23;;;;;;;20.63;11.45;;;;;;;;;;4952342;29;20168;-69
2022/03/28 08:07:51;;;;;;;19.67;11.27;;;;;;;;;;4952317;28;20113;-68
2022/03/28 08:10:18;;;;;;;20.48;12.10;;;;;;;;;;4952541;29;20051;-68
2022/03/28 08:12:46;;;;;;;25.80;12.55;;;;;;;;;;4952371;29;20129;-69
2022/03/28 08:15:16;;;;;;;20.77;12.32;;;;;;;;;;4952708;29;20126;-69
2022/03/28 08:17:44;;;;;;;20.75;11.40;;;;;;;;;;4950673;29;20051;-69
2022/03/28 08:20:14;;;;;;;22.38;11.98;;;;;;;;;;4953618;28;20047;-69
2022/03/28 08:22:46;;;;;;;20.75;11.75;;;;;;;;;;4953109;29;20077;-69
2022/03/28 08:25:14;;;;;;;21.35;10.88;;;;;;;;;;4953817;28;20412;-69
2022/03/28 08:27:41;;;;;;;19.40;11.18;;;;;;;;;;4956115;29;20412;-69
2022/03/28 08:30:10;;;;;;;24.30;12.95;;;;;;;;;;4956061;28;20279;-69
2022/03/28 08:32:38;;;;;;;20.88;11.57;;;;;;;;;;4956004;29;20043;-69
2022/03/28 08:35:06;;;;;;;22.05;11.75;;;;;;;;;;4956386;29;20505;-68
2022/03/28 08:37:34;;;;;;;20.70;11.85;;;;;;;;;;4956217;29;20043;-69
2022/03/28 08:40:01;;;;;;;20.65;11.13;;;;;;;;;;4955423;29;20130;-69
2022/03/28 08:42:29;;;;;;;19.70;11.73;;;;;;;;;;4957302;29;20054;-69
2022/03/28 08:44:57;;;;;;;26.88;15.88;;;;;;;;;;4956034;28;20418;-68
2022/03/28 08:47:25;;;;;;;21.83;11.98;;;;;;;;;;4955326;29;20664;-67
2022/03/28 08:49:55;;;;;;;21.25;12.45;;;;;;;;;;4955697;29;20086;-69
2022/03/28 08:52:23;;;;;;;24.80;12.55;;;;;;;;;;4956221;29;20094;-68
2022/03/28 08:54:50;;;;;;;21.65;11.07;;;;;;;;;;4955088;29;20082;-69
2022/03/28 08:57:18;;;;;;;20.77;11.30;;;;;;;;;;4955978;29;20082;-69
2022/03/28 08:59:45;;;;;;;20.63;11.95;;;;;;;;;;4955585;29;20055;-68
2022/03/28 09:02:31;;;;;;;19.10;11.77;;;;;;;;;;4955057;29;20055;-68
2022/03/28 09:05:00;;;;;;;19.42;11.60;;;;;;;;;;4955959;29;20464;-67
2022/03/28 09:07:27;;;;;;;19.20;11.77;;;;;;;;;;4955805;28;20051;-69
2022/03/28 09:09:58;;;;;;;21.25;11.48;;;;;;;;;;4955324;29;20062;-68
2022/03/28 09:12:25;;;;;;;20.25;11.65;;;;;;;;;;4956462;29;20061;-68
2022/03/28 09:14:57;;;;;;;19.83;11.23;;;;;;;;;;4955948;29;20062;-68
2022/03/28 09:17:25;;;;;;;20.05;12.20;;;;;;;;;;4955769;29;20048;-67
2022/03/28 09:19:55;;;;;;;18.98;11.52;;;;;;;;;;4955803;29;20141;-68
2022/03/28 09:22:25;;;;;;;19.08;12.10;;;;;;;;;;4936048;29;20147;-69
2022/03/28 09:24:54;;;;;;;18.52;11.02;;;;;;;;;;4936364;29;20135;-69
2022/03/28 09:27:23;;;;;;;17.52;11.68;;;;;;;;;;4936037;28;20372;-68
2022/03/28 09:29:58;;;;;;;18.13;12.23;;;;;;;;;;4936439;29;20442;-68
2022/03/28 09:32:29;;;;;;;20.02;12.13;;;;;;;;;;4936108;29;20063;-69
2022/03/28 09:35:06;;;;;;;21.10;11.38;;;;;;;;;;4936216;29;20062;-69
2022/03/28 09:37:50;;;;;;;29.10;18.27;;;;;;;;;;4935706;29;20067;-69
2022/03/28 09:40:29;;;;;;;25.02;12.75;;;;;;;;;;4935655;29;20139;-69
2022/03/28 09:42:57;;;;;;;22.80;12.30;;;;;;;;;;4936542;29;20062;-70
2022/03/28 09:45:26;;;;;;;17.85;11.00;;;;;;;;;;4946808;29;20547;-69
2022/03/28 09:48:00;;;;;;;22.55;12.50;;;;;;;;;;4954858;29;20063;-69
2022/03/28 09:50:40;;;;;;;19.30;11.63;;;;;;;;;;4955941;29;20512;-70
2022/03/28 09:53:27;;;;;;;17.35;11.68;;;;;;;;;;4954681;29;20134;-69
2022/03/28 09:55:57;;;;;;;22.13;12.60;;;;;;;;;;4955357;29;20513;-68
2022/03/28 09:58:45;;;;;;;19.67;11.93;;;;;;;;;;4954941;29;20109;-69
2022/03/28 10:02:07;;;;;;;21.50;12.40;;;;;;;;;;4954772;29;20044;-69
2022/03/28 10:04:36;;;;;;;20.42;12.00;;;;;;;;;;4954843;29;20493;-69
2022/03/28 10:07:03;;;;;;;23.95;13.32;;;;;;;;;;4954759;29;20047;-69
2022/03/28 10:09:32;;;;;;;19.48;11.85;;;;;;;;;;4954622;29;20054;-70
2022/03/28 10:12:02;;;;;;;19.42;11.68;;;;;;;;;;4954965;29;20145;-69
2022/03/28 10:14:30;;;;;;;;;;;;;;;;;;4954369;28;20055;-69
2022/03/28 10:16:58;;;;;;;20.85;11.77;;;;;;;;;;4954143;29;19934;-68
2022/03/28 10:19:26;;;;;;;20.52;11.98;;;;;;;;;;4954112;28;20094;-68
2022/03/28 10:21:53;;;;;;;21.35;12.43;;;;;;;;;;4954482;29;20058;-68
2022/03/28 10:24:25;;;;;;;20.83;12.75;;;;;;;;;;4954581;29;20051;-69
2022/03/28 10:26:56;;;;;;;19.52;12.15;;;;;;;;;;4954001;29;20051;-69
2022/03/28 10:29:23;;;;;;;19.95;11.43;;;;;;;;;;4954157;29;20334;-71
2022/03/28 10:31:59;;;;;;;21.10;11.93;;;;;;;;;;4953929;28;20090;-69
2022/03/28 10:34:49;;;;;;;19.20;11.98;;;;;;;;;;4954414;28;20126;-68
2022/03/28 10:37:32;;;;;;;16.63;11.77;;;;;;;;;;4955035;29;20051;-69
2022/03/28 10:40:26;;;;;;;21.20;12.45;;;;;;;;;;4954333;29;20257;-68
2022/03/28 10:43:06;;;;;;;21.52;12.85;;;;;;;;;;4953952;29;20066;-70
2022/03/28 10:45:36;;;;;;;23.63;12.82;;;;;;;;;;4954211;29;20134;-69
2022/03/28 10:48:04;;;;;;;18.67;12.52;;;;;;;;;;4953819;28;20106;-69
2022/03/28 10:50:34;;;;;;;22.35;12.75;;;;;;;;;;4953691;29;20102;-69
2022/03/28 10:53:09;;;;;;;19.73;12.95;;;;;;;;;;4953526;29;20136;-69
2022/03/28 10:55:38;;;;;;;20.15;12.38;;;;;;;;;;4952982;29;20106;-69
2022/03/28 10:58:22;;;;;;;21.85;13.38;;;;;;;;;;4953866;29;20090;-69
2022/03/28 11:01:29;;;;;;;20.70;13.00;;;;;;;;;;4953227;29;20136;-69
2022/03/28 11:04:02;;;;;;;20.50;13.23;;;;;;;;;;4913279;29;20079;-71
2022/03/28 11:06:49;;;;;;;21.27;12.60;;;;;;;;;;4913052;29;20529;-68
2022/03/28 11:09:34;;;;;;;21.00;12.73;;;;;;;;;;4950521;23;20579;-63
2022/03/28 11:12:04;;;;;;;20.67;12.27;;;;;;;;;;4952770;29;20061;-63
2022/03/28 11:14:44;;;;;;;21.25;11.95;;;;;;;;;;4953668;29;20062;-65
2022/03/28 11:17:19;;;;;;;21.67;13.02;;;;;;;;;;4953572;29;20055;-64
2022/03/28 11:19:56;;;;;;;22.50;13.05;;;;;;;;;;4952957;28;20054;-64
2022/03/28 11:22:42;;;;;;;19.05;12.80;;;;;;;;;;4953250;29;20110;-64
2022/03/28 11:25:41;;;;;;;22.08;12.15;;;;;;;;;;4952750;28;20408;-65
2022/03/28 11:28:14;;;;;;;25.00;13.60;;;;;;;;;;4953011;28;20051;-64
2022/03/28 11:30:51;;;;;;;23.00;14.27;;;;;;;;;;4952635;29;20053;-64
2022/03/28 11:33:21;;;;;;;21.65;12.20;;;;;;;;;;4953299;29;20058;-64
2022/03/28 11:35:55;;;;;;;24.30;12.52;;;;;;;;;;4953452;29;20082;-64
2022/03/28 11:38:23;;;;;;;21.92;12.90;;;;;;;;;;4951785;29;20086;-65
2022/03/28 11:40:50;;;;;;;20.17;12.68;;;;;;;;;;4953040;29;20059;-65
2022/03/28 11:43:18;;;;;;;23.35;13.32;;;;;;;;;;4952874;29;20051;-62
2022/03/28 11:45:50;;;;;;;20.80;12.18;;;;;;;;;;4939124;29;20056;-62
2022/03/28 11:48:19;;;;;;;24.38;13.48;;;;;;;;;;4933367;29;20051;-63
2022/03/28 11:50:46;;;;;;;22.73;13.65;;;;;;;;;;4932676;29;20087;-63
2022/03/28 11:53:14;;;;;;;19.20;12.50;;;;;;;;;;4933716;29;20056;-63
2022/03/28 11:55:48;;;;;;;20.92;12.52;;;;;;;;;;4933224;29;20062;-65
2022/03/28 11:58:19;;;;;;;19.75;12.23;;;;;;;;;;4933496;29;20119;-63
2022/03/28 12:00:48;;;;;;;18.63;11.70;;;;;;;;;;4933406;29;20535;-63
2022/03/28 12:03:17;;;;;;;24.80;13.95;;;;;;;;;;4933722;29;20056;-63
2022/03/28 12:05:46;;;;;;;24.27;16.48;;;;;;;;;;4932821;29;20139;-63
2022/03/28 12:08:14;;;;;;;20.60;12.30;;;;;;;;;;4933598;29;20060;-63
2022/03/28 12:10:43;;;;;;;19.30;11.43;;;;;;;;;;4933378;29;20051;-63
2022/03/28 12:13:11;;;;;;;17.58;11.70;;;;;;;;;;4933442;29;20051;-63
2022/03/28 12:15:43;;;;;;;17.63;11.02;;;;;;;;;;4932398;29;20099;-63
2022/03/28 12:18:11;;;;;;;17.15;10.25;;;;;;;;;;4933656;29;20062;-63
2022/03/28 12:20:42;;;;;;;17.33;10.40;;;;;;;;;;4933607;29;20498;-63
2022/03/28 12:23:11;;;;;;;16.73;10.70;;;;;;;;;;4934545;29;20401;-64
2022/03/28 12:25:40;;;;;;;18.85;11.35;;;;;;;;;;4933775;29;20052;-63
2022/03/28 12:28:09;;;;;;;18.85;11.25;;;;;;;;;;4933663;29;20134;-64
2022/03/28 12:30:39;;;;;;;18.17;11.35;;;;;;;;;;4933656;29;20062;-64
2022/03/28 12:33:14;;;;;;;17.52;10.75;;;;;;;;;;4933593;29;20130;-64
2022/03/28 12:35:45;;;;;;;17.05;10.82;;;;;;;;;;4933203;29;20056;-64
2022/03/28 12:38:17;;;;;;;15.80;10.38;;;;;;;;;;4933918;29;20082;-64
2022/03/28 12:40:46;;;;;;;16.45;10.45;;;;;;;;;;4933597;29;20098;-63
2022/03/28 12:43:14;;;;;;;16.63;10.50;;;;;;;;;;4933436;29;20111;-64
2022/03/28 12:45:42;;;;;;;17.08;10.80;;;;;;;;;;4933146;29;20280;-64
2022/03/28 12:48:11;;;;;;;15.95;11.05;;;;;;;;;;4933200;29;20091;-64
2022/03/28 12:50:53;;;;;;;16.38;10.82;;;;;;;;;;4933265;29;20052;-64
2022/03/28 12:53:23;;;;;;;20.52;13.90;;;;;;;;;;4933416;29;20420;-64
2022/03/28 12:55:50;;;;;;;19.17;11.35;;;;;;;;;;4933427;29;20058;-64
2022/03/28 12:58:17;;;;;;;20.15;10.82;;;;;;;;;;4933041;29;20450;-64
2022/03/28 13:00:45;;;;;;;17.45;11.65;;;;;;;;;;4932753;29;20135;-64
2022/03/28 13:03:31;;;;;;;15.93;10.85;;;;;;;;;;4932855;29;20471;-64
2022/03/28 13:06:13;;;;;;;17.00;10.82;;;;;;;;;;4933281;29;20074;-64
2022/03/28 13:08:41;;;;;;;16.65;10.85;;;;;;;;;;4933218;29;20059;-64
2022/03/28 13:11:19;;;;;;;16.08;10.68;;;;;;;;;;4933983;29;20059;-64
2022/03/28 13:13:48;;;;;;;17.35;11.50;;;;;;;;;;4936958;29;20437;-64
2022/03/28 13:16:23;;;;;;;18.35;11.05;;;;;;;;;;4936220;29;20056;-64
2022/03/28 13:19:01;;;;;;;20.67;11.80;;;;;;;;;;4936728;29;20134;-65
2022/03/28 13:21:32;;;;;;;18.13;11.32;;;;;;;;;;4936684;29;20062;-65
2022/03/28 13:24:04;;;;;;;16.75;11.13;;;;;;;;;;4936318;29;20064;-65
2022/03/28 13:26:38;;;;;;;17.27;12.20;;;;;;;;;;4936026;29;20055;-65
2022/03/28 13:29:24;;;;;;;17.40;12.07;;;;;;;;;;4936582;29;20059;-65
2022/03/28 13:31:53;;;;;;;18.20;11.60;;;;;;;;;;4936160;29;20058;-65
2022/03/28 13:34:20;;;;;;;15.80;10.88;;;;;;;;;;4936302;29;20055;-65
2022/03/28 13:36:48;;;;;;;18.02;11.57;;;;;;;;;;4935793;29;20056;-65
2022/03/28 13:39:16;;;;;;;18.15;11.18;;;;;;;;;;4936022;29;20063;-65
2022/03/28 13:41:43;;;;;;;16.13;10.52;;;;;;;;;;4936252;29;20056;-65
2022/03/28 13:44:11;;;;;;;18.63;11.48;;;;;;;;;;4936042;29;20058;-65
2022/03/28 13:46:39;;;;;;;24.05;12.40;;;;;;;;;;4936710;29;20490;-65
2022/03/28 13:49:06;;;;;;;16.52;11.52;;;;;;;;;;4936225;29;20055;-65
2022/03/28 13:51:33;;;;;;;19.02;11.27;;;;;;;;;;4936013;29;20090;-66
2022/03/28 13:54:03;;;;;;;18.15;11.07;;;;;;;;;;4935961;29;20047;-65
2022/03/28 13:56:31;;;;;;;16.40;11.77;;;;;;;;;;4936413;29;20056;-66
2022/03/28 13:58:58;;;;;;;18.08;12.57;;;;;;;;;;4935262;29;20067;-64
2022/03/28 14:01:28;;;;;;;19.65;12.57;;;;;;;;;;4935337;29;20073;-64
2022/03/28 14:03:56;;;;;;;16.75;11.50;;;;;;;;;;4935441;29;20062;-64
2022/03/28 14:06:23;;;;;;;18.48;12.15;;;;;;;;;;4935342;29;20497;-64
2022/03/28 14:08:51;;;;;;;18.55;12.43;;;;;;;;;;4935175;29;20083;-65
2022/03/28 14:11:21;;;;;;;17.00;11.68;;;;;;;;;;4935198;29;20058;-65
2022/03/28 14:13:49;;;;;;;23.10;12.68;;;;;;;;;;4935360;29;20273;-64
2022/03/28 14:16:16;;;;;;;18.58;12.07;;;;;;;;;;4935165;29;20074;-63
2022/03/28 14:18:45;;;;;;;15.35;10.98;;;;;;;;;;4935293;29;20477;-65
2022/03/28 14:21:12;;;;;;;16.73;11.55;;;;;;;;;;4935514;29;20154;-63
2022/03/28 14:23:39;;;;;;;16.98;11.40;;;;;;;;;;4934636;29;20497;-63
2022/03/28 14:26:06;;;;;;;15.20;11.48;;;;;;;;;;4935104;29;20052;-63
2022/03/28 14:28:35;;;;;;;16.90;12.10;;;;;;;;;;4935051;29;20386;-64
2022/03/28 14:31:02;;;;;;;17.98;12.50;;;;;;;;;;4935394;29;20048;-63
2022/03/28 14:33:29;;;;;;;18.27;12.57;;;;;;;;;;4935279;29;20051;-64